createdAt,value
2023-11-25T21:08:34.890Z,21.14
2023-11-25T21:11:01.723Z,20.35
2023-11-25T21:13:28.628Z,20.16
2023-11-25T21:15:57.638Z,20.11
2023-11-25T21:20:25.605Z,18.72
2023-11-25T21:22:55.495Z,18.33
2023-11-25T21:25:23.218Z,18.15
2023-11-25T21:27:51.018Z,18.11
2023-11-25T21:30:20.446Z,18.19
2023-11-25T21:32:51.885Z,18.25
2023-11-25T21:35:21.023Z,18.13
2023-11-25T21:37:50.115Z,18.05
2023-11-25T21:40:23.580Z,18.19
2023-11-25T21:42:53.672Z,18.29
2023-11-25T21:45:20.573Z,18.32
2023-11-25T21:47:47.507Z,18.34
2023-11-25T21:50:16.691Z,18.38
2023-11-25T21:52:43.568Z,18.41
2023-11-25T21:55:10.520Z,18.43
2023-11-25T21:57:43.040Z,18.44
2023-11-25T22:00:15.877Z,18.47
2023-11-25T22:02:42.983Z,18.48
2023-11-25T22:05:11.910Z,18.50
2023-11-25T22:07:41.211Z,18.51
2023-11-25T22:10:21.414Z,18.55
2023-11-25T22:12:54.272Z,18.57
2023-11-25T22:15:21.149Z,18.58
2023-11-25T22:17:50.281Z,18.60
2023-11-25T22:20:17.857Z,18.62
2023-11-25T22:22:45.761Z,18.62
2023-11-25T22:25:24.535Z,18.64
2023-11-25T22:27:51.219Z,18.66
2023-11-25T22:30:20.239Z,18.67
2023-11-25T22:32:49.245Z,18.68
2023-11-25T22:35:20.750Z,18.69
2023-11-25T22:37:53.164Z,18.70
2023-11-25T22:40:20.034Z,18.68
2023-11-25T22:42:46.941Z,18.72
2023-11-25T22:45:14.720Z,18.74
2023-11-25T22:47:41.881Z,18.68
2023-11-25T22:50:09.724Z,18.68
2023-11-25T22:52:38.775Z,18.72
2023-11-25T22:55:05.630Z,18.74
2023-11-25T22:57:36.498Z,18.75
2023-11-25T23:00:05.865Z,18.75
2023-11-25T23:02:34.717Z,18.75
2023-11-25T23:05:02.955Z,18.76
2023-11-25T23:07:32.050Z,18.32
2023-11-25T23:10:01.558Z,17.65
2023-11-25T23:12:30.499Z,17.46
2023-11-25T23:14:59.693Z,17.88
2023-11-25T23:17:28.739Z,18.00
2023-11-25T23:19:55.898Z,18.03
2023-11-25T23:22:24.957Z,18.04
2023-11-25T23:24:54.867Z,18.05
2023-11-25T23:27:26.214Z,18.05
2023-11-25T23:29:57.774Z,18.06
2023-11-25T23:32:27.100Z,18.06
2023-11-25T23:34:56.251Z,18.10
2023-11-25T23:37:23.049Z,18.11
2023-11-25T23:39:49.797Z,18.11
2023-11-25T23:42:16.727Z,18.14
2023-11-25T23:44:47.510Z,18.14
2023-11-25T23:47:16.455Z,18.16
2023-11-25T23:49:43.217Z,18.17
2023-11-25T23:52:16.177Z,18.18
2023-11-25T23:54:43.272Z,18.21
2023-11-25T23:57:10.076Z,18.23
2023-11-25T23:59:40.124Z,18.27
